sensor_id;sensor_type;location;lat;lon;timestamp;pressure;altitude;pressure_sealevel;temperature;humidity
70302;BME280;57706;56.326;43.882;2023-09-07T00:00:14;100401.94;;;8.65;82.19
70302;BME280;57706;56.326;43.882;2023-09-07T00:02:40;100408.88;;;8.57;82.64
70302;BME280;57706;56.326;43.882;2023-09-07T00:05:06;100404.09;;;8.52;82.96
70302;BME280;57706;56.326;43.882;2023-09-07T00:07:33;100405.78;;;8.43;83.60
70302;BME280;57706;56.326;43.882;2023-09-07T00:09:59;100406.72;;;8.42;83.68
70302;BME280;57706;56.326;43.882;2023-09-07T00:12:25;100408.41;;;8.43;83.65
70302;BME280;57706;56.326;43.882;2023-09-07T00:14:54;100410.31;;;8.41;83.57
70302;BME280;57706;56.326;43.882;2023-09-07T00:17:21;100411.69;;;8.45;83.66
70302;BME280;57706;56.326;43.882;2023-09-07T00:19:47;100413.63;;;8.43;83.74
70302;BME280;57706;56.326;43.882;2023-09-07T00:22:17;100414.22;;;8.37;83.69
70302;BME280;57706;56.326;43.882;2023-09-07T00:24:44;100421.94;;;8.38;83.96
70302;BME280;57706;56.326;43.882;2023-09-07T00:27:11;100421.78;;;8.40;83.80
70302;BME280;57706;56.326;43.882;2023-09-07T00:29:38;100416.69;;;8.38;83.71
70302;BME280;57706;56.326;43.882;2023-09-07T00:32:05;100424.38;;;8.40;83.76
70302;BME280;57706;56.326;43.882;2023-09-07T00:34:32;100423.13;;;8.44;83.67
70302;BME280;57706;56.326;43.882;2023-09-07T00:37:00;100422.44;;;8.42;83.46
70302;BME280;57706;56.326;43.882;2023-09-07T00:39:25;100418.56;;;8.46;83.28
70302;BME280;57706;56.326;43.882;2023-09-07T00:41:51;100422.22;;;8.35;83.57
70302;BME280;57706;56.326;43.882;2023-09-07T00:44:17;100432.16;;;8.32;83.70
70302;BME280;57706;56.326;43.882;2023-09-07T00:46:44;100425.03;;;8.24;84.09
70302;BME280;57706;56.326;43.882;2023-09-07T00:49:11;100429.75;;;8.20;84.67
70302;BME280;57706;56.326;43.882;2023-09-07T00:51:38;100435.75;;;8.31;84.11
70302;BME280;57706;56.326;43.882;2023-09-07T00:54:05;100425.41;;;8.29;84.13
70302;BME280;57706;56.326;43.882;2023-09-07T00:56:32;100417.84;;;8.26;84.21
70302;BME280;57706;56.326;43.882;2023-09-07T00:59:00;100425.41;;;8.29;84.43
70302;BME280;57706;56.326;43.882;2023-09-07T01:01:27;100426.34;;;8.38;84.43
70302;BME280;57706;56.326;43.882;2023-09-07T01:03:55;100419.81;;;8.42;83.80
70302;BME280;57706;56.326;43.882;2023-09-07T01:06:30;100421.97;;;8.57;83.46
70302;BME280;57706;56.326;43.882;2023-09-07T01:08:58;100423.16;;;8.62;83.22
70302;BME280;57706;56.326;43.882;2023-09-07T01:11:26;100421.69;;;8.78;82.30
70302;BME280;57706;56.326;43.882;2023-09-07T01:13:52;100419.97;;;8.87;81.85
70302;BME280;57706;56.326;43.882;2023-09-07T01:16:22;100422.44;;;8.88;81.07
70302;BME280;57706;56.326;43.882;2023-09-07T01:18:50;100415.19;;;8.82;81.18
70302;BME280;57706;56.326;43.882;2023-09-07T01:21:17;100424.75;;;8.73;81.54
70302;BME280;57706;56.326;43.882;2023-09-07T01:23:44;100425.13;;;8.78;81.34
70302;BME280;57706;56.326;43.882;2023-09-07T01:26:12;100424.69;;;8.83;81.12
70302;BME280;57706;56.326;43.882;2023-09-07T01:28:38;100421.59;;;8.88;80.86
70302;BME280;57706;56.326;43.882;2023-09-07T01:31:04;100416.97;;;9.00;80.48
70302;BME280;57706;56.326;43.882;2023-09-07T01:33:31;100425.56;;;8.92;80.62
70302;BME280;57706;56.326;43.882;2023-09-07T01:35:57;100422.81;;;8.93;80.66
70302;BME280;57706;56.326;43.882;2023-09-07T01:38:23;100422.66;;;8.95;80.39
70302;BME280;57706;56.326;43.882;2023-09-07T01:40:48;100418.97;;;9.06;80.42
70302;BME280;57706;56.326;43.882;2023-09-07T01:43:14;100421.22;;;9.19;79.54
70302;BME280;57706;56.326;43.882;2023-09-07T01:45:40;100422.59;;;9.31;78.59
70302;BME280;57706;56.326;43.882;2023-09-07T01:48:11;100424.16;;;9.42;78.17
70302;BME280;57706;56.326;43.882;2023-09-07T01:50:37;100424.56;;;9.29;78.10
70302;BME280;57706;56.326;43.882;2023-09-07T01:53:03;100425.44;;;9.38;77.98
70302;BME280;57706;56.326;43.882;2023-09-07T01:55:31;100426.91;;;9.41;78.05
70302;BME280;57706;56.326;43.882;2023-09-07T01:57:58;100439.81;;;9.52;77.90
70302;BME280;57706;56.326;43.882;2023-09-07T02:00:25;100429.50;;;9.59;76.57
70302;BME280;57706;56.326;43.882;2023-09-07T02:02:51;100430.00;;;9.62;76.97
70302;BME280;57706;56.326;43.882;2023-09-07T02:05:17;100436.59;;;9.67;76.87
70302;BME280;57706;56.326;43.882;2023-09-07T02:07:44;100443.50;;;9.68;76.57
70302;BME280;57706;56.326;43.882;2023-09-07T02:10:10;100450.06;;;9.72;77.34
70302;BME280;57706;56.326;43.882;2023-09-07T02:12:38;100455.69;;;9.77;76.83
70302;BME280;57706;56.326;43.882;2023-09-07T02:15:05;100448.53;;;9.87;76.33
70302;BME280;57706;56.326;43.882;2023-09-07T02:17:34;100452.78;;;9.88;76.18
70302;BME280;57706;56.326;43.882;2023-09-07T02:20:01;100449.53;;;9.95;76.10
70302;BME280;57706;56.326;43.882;2023-09-07T02:22:30;100459.44;;;10.01;75.79
70302;BME280;57706;56.326;43.882;2023-09-07T02:24:56;100455.31;;;9.98;75.71
70302;BME280;57706;56.326;43.882;2023-09-07T02:27:21;100452.50;;;10.00;75.67
70302;BME280;57706;56.326;43.882;2023-09-07T02:29:47;100451.59;;;10.09;75.67
70302;BME280;57706;56.326;43.882;2023-09-07T02:32:13;100454.22;;;10.09;75.27
70302;BME280;57706;56.326;43.882;2023-09-07T02:34:39;100461.19;;;9.92;75.65
70302;BME280;57706;56.326;43.882;2023-09-07T02:37:05;100452.84;;;9.97;75.64
70302;BME280;57706;56.326;43.882;2023-09-07T02:39:31;100463.66;;;9.94;75.52
70302;BME280;57706;56.326;43.882;2023-09-07T02:41:57;100466.31;;;10.02;75.22
70302;BME280;57706;56.326;43.882;2023-09-07T02:44:22;100473.19;;;9.95;75.66
70302;BME280;57706;56.326;43.882;2023-09-07T02:46:49;100479.59;;;10.00;75.75
70302;BME280;57706;56.326;43.882;2023-09-07T02:49:15;100483.41;;;10.06;75.31
70302;BME280;57706;56.326;43.882;2023-09-07T02:51:41;100481.78;;;10.13;74.94
70302;BME280;57706;56.326;43.882;2023-09-07T02:54:07;100484.94;;;10.17;74.64
70302;BME280;57706;56.326;43.882;2023-09-07T02:56:33;100487.00;;;10.05;75.13
70302;BME280;57706;56.326;43.882;2023-09-07T02:58:59;100482.78;;;10.12;75.02
70302;BME280;57706;56.326;43.882;2023-09-07T03:01:25;100484.28;;;10.15;74.74
70302;BME280;57706;56.326;43.882;2023-09-07T03:03:51;100484.41;;;10.13;74.28
70302;BME280;57706;56.326;43.882;2023-09-07T03:06:17;100492.81;;;10.17;74.31
70302;BME280;57706;56.326;43.882;2023-09-07T03:08:47;100495.53;;;10.07;74.14
70302;BME280;57706;56.326;43.882;2023-09-07T03:11:13;100490.16;;;10.09;74.04
70302;BME280;57706;56.326;43.882;2023-09-07T03:13:39;100498.84;;;10.09;74.41
70302;BME280;57706;56.326;43.882;2023-09-07T03:16:05;100490.66;;;10.12;74.35
70302;BME280;57706;56.326;43.882;2023-09-07T03:18:31;100495.53;;;10.07;74.12
70302;BME280;57706;56.326;43.882;2023-09-07T03:20:59;100497.91;;;10.18;74.04
70302;BME280;57706;56.326;43.882;2023-09-07T03:23:27;100490.81;;;10.11;73.89
70302;BME280;57706;56.326;43.882;2023-09-07T03:25:53;100497.69;;;10.12;73.91
70302;BME280;57706;56.326;43.882;2023-09-07T03:28:19;100505.81;;;10.27;73.72
70302;BME280;57706;56.326;43.882;2023-09-07T03:30:46;100500.25;;;10.30;73.01
70302;BME280;57706;56.326;43.882;2023-09-07T03:33:12;100498.78;;;10.36;72.83
70302;BME280;57706;56.326;43.882;2023-09-07T03:35:38;100504.88;;;10.36;72.10
70302;BME280;57706;56.326;43.882;2023-09-07T03:38:04;100504.28;;;10.42;72.84
70302;BME280;57706;56.326;43.882;2023-09-07T03:40:30;100507.25;;;10.48;72.35
70302;BME280;57706;56.326;43.882;2023-09-07T03:42:56;100508.25;;;10.55;71.92
70302;BME280;57706;56.326;43.882;2023-09-07T03:45:25;100513.19;;;10.58;71.92
70302;BME280;57706;56.326;43.882;2023-09-07T03:47:51;100503.38;;;10.68;70.83
70302;BME280;57706;56.326;43.882;2023-09-07T03:50:18;100506.53;;;10.80;70.65
70302;BME280;57706;56.326;43.882;2023-09-07T03:52:44;100514.22;;;10.82;70.04
70302;BME280;57706;56.326;43.882;2023-09-07T03:55:10;100511.31;;;10.85;70.47
70302;BME280;57706;56.326;43.882;2023-09-07T03:57:37;100509.97;;;10.89;70.32
70302;BME280;57706;56.326;43.882;2023-09-07T04:00:03;100517.88;;;10.89;69.89
70302;BME280;57706;56.326;43.882;2023-09-07T04:02:39;100522.13;;;10.90;70.20
70302;BME280;57706;56.326;43.882;2023-09-07T04:05:06;100520.84;;;10.86;69.86
70302;BME280;57706;56.326;43.882;2023-09-07T04:07:33;100524.94;;;10.80;69.70
70302;BME280;57706;56.326;43.882;2023-09-07T04:09:59;100531.34;;;10.86;69.67
70302;BME280;57706;56.326;43.882;2023-09-07T04:12:25;100526.09;;;10.86;69.46
70302;BME280;57706;56.326;43.882;2023-09-07T04:14:51;100532.16;;;10.86;69.55
70302;BME280;57706;56.326;43.882;2023-09-07T04:17:18;100538.25;;;10.87;69.44
70302;BME280;57706;56.326;43.882;2023-09-07T04:19:44;100539.75;;;10.90;69.15
70302;BME280;57706;56.326;43.882;2023-09-07T04:22:11;100540.88;;;10.87;69.79
70302;BME280;57706;56.326;43.882;2023-09-07T04:24:37;100550.06;;;10.91;69.72
70302;BME280;57706;56.326;43.882;2023-09-07T04:27:04;100543.97;;;10.74;70.01
70302;BME280;57706;56.326;43.882;2023-09-07T04:29:32;100553.00;;;10.80;70.39
70302;BME280;57706;56.326;43.882;2023-09-07T04:31:58;100558.16;;;10.90;69.91
70302;BME280;57706;56.326;43.882;2023-09-07T04:34:24;100554.06;;;11.04;70.38
70302;BME280;57706;56.326;43.882;2023-09-07T04:36:51;100557.38;;;11.31;69.68
70302;BME280;57706;56.326;43.882;2023-09-07T04:39:17;100561.66;;;11.56;69.32
70302;BME280;57706;56.326;43.882;2023-09-07T04:41:43;100553.94;;;11.80;68.43
70302;BME280;57706;56.326;43.882;2023-09-07T04:44:10;100550.47;;;12.04;67.54
70302;BME280;57706;56.326;43.882;2023-09-07T04:46:36;100550.88;;;12.33;65.92
70302;BME280;57706;56.326;43.882;2023-09-07T04:49:02;100556.59;;;12.45;65.26
70302;BME280;57706;56.326;43.882;2023-09-07T04:51:28;100555.84;;;12.68;64.64
70302;BME280;57706;56.326;43.882;2023-09-07T04:53:54;100553.53;;;12.64;64.13
70302;BME280;57706;56.326;43.882;2023-09-07T04:56:20;100563.06;;;13.05;63.51
70302;BME280;57706;56.326;43.882;2023-09-07T04:58:47;100569.41;;;13.19;62.76
70302;BME280;57706;56.326;43.882;2023-09-07T05:01:13;100566.91;;;12.94;62.38
70302;BME280;57706;56.326;43.882;2023-09-07T05:03:41;100568.81;;;13.09;62.51
70302;BME280;57706;56.326;43.882;2023-09-07T05:06:08;100577.19;;;13.36;61.34
70302;BME280;57706;56.326;43.882;2023-09-07T05:08:34;100572.47;;;13.55;61.17
70302;BME280;57706;56.326;43.882;2023-09-07T05:11:02;100572.47;;;13.55;60.53
70302;BME280;57706;56.326;43.882;2023-09-07T05:13:29;100583.81;;;13.32;61.02
70302;BME280;57706;56.326;43.882;2023-09-07T05:15:59;100572.78;;;13.05;62.42
70302;BME280;57706;56.326;43.882;2023-09-07T05:18:28;100573.38;;;13.15;61.99
70302;BME280;57706;56.326;43.882;2023-09-07T05:20:54;100581.34;;;13.07;61.98
70302;BME280;57706;56.326;43.882;2023-09-07T05:23:23;100578.72;;;12.75;62.74
70302;BME280;57706;56.326;43.882;2023-09-07T05:25:52;100576.88;;;12.84;62.79
70302;BME280;57706;56.326;43.882;2023-09-07T05:28:20;100581.19;;;12.77;63.42
70302;BME280;57706;56.326;43.882;2023-09-07T05:30:47;100576.22;;;12.74;63.15
70302;BME280;57706;56.326;43.882;2023-09-07T05:33:15;100584.53;;;12.62;64.10
70302;BME280;57706;56.326;43.882;2023-09-07T05:35:42;100589.75;;;12.39;66.27
70302;BME280;57706;56.326;43.882;2023-09-07T05:38:08;100589.25;;;12.35;67.46
70302;BME280;57706;56.326;43.882;2023-09-07T05:40:40;100592.53;;;12.37;67.72
70302;BME280;57706;56.326;43.882;2023-09-07T05:43:06;100596.41;;;12.66;66.97
70302;BME280;57706;56.326;43.882;2023-09-07T05:45:38;100596.00;;;12.78;66.20
70302;BME280;57706;56.326;43.882;2023-09-07T05:48:06;100601.44;;;13.63;64.33
70302;BME280;57706;56.326;43.882;2023-09-07T05:50:37;100588.81;;;14.42;60.65
70302;BME280;57706;56.326;43.882;2023-09-07T05:53:03;100595.88;;;14.86;60.31
70302;BME280;57706;56.326;43.882;2023-09-07T05:55:30;100597.47;;;14.66;59.92
70302;BME280;57706;56.326;43.882;2023-09-07T05:57:57;100597.84;;;14.32;61.45
70302;BME280;57706;56.326;43.882;2023-09-07T06:00:24;100588.25;;;14.01;61.99
70302;BME280;57706;56.326;43.882;2023-09-07T06:02:50;100595.31;;;13.86;62.45
70302;BME280;57706;56.326;43.882;2023-09-07T06:05:17;100592.38;;;13.81;62.66
70302;BME280;57706;56.326;43.882;2023-09-07T06:07:44;100596.16;;;13.63;62.90
70302;BME280;57706;56.326;43.882;2023-09-07T06:10:12;100597.06;;;13.24;64.33
70302;BME280;57706;56.326;43.882;2023-09-07T06:12:38;100601.06;;;13.19;64.89
70302;BME280;57706;56.326;43.882;2023-09-07T06:15:04;100599.91;;;12.90;65.53
70302;BME280;57706;56.326;43.882;2023-09-07T06:17:33;100596.72;;;12.63;67.14
70302;BME280;57706;56.326;43.882;2023-09-07T06:19:59;100598.78;;;12.45;68.29
70302;BME280;57706;56.326;43.882;2023-09-07T06:22:26;100612.28;;;12.50;68.82
70302;BME280;57706;56.326;43.882;2023-09-07T06:24:52;100602.75;;;12.32;69.91
70302;BME280;57706;56.326;43.882;2023-09-07T06:27:18;100606.09;;;12.18;71.84
70302;BME280;57706;56.326;43.882;2023-09-07T06:29:44;100604.78;;;12.14;71.47
70302;BME280;57706;56.326;43.882;2023-09-07T06:32:10;100607.31;;;12.55;71.34
70302;BME280;57706;56.326;43.882;2023-09-07T06:34:36;100607.88;;;13.37;69.20
70302;BME280;57706;56.326;43.882;2023-09-07T06:37:03;100597.94;;;13.71;67.10
70302;BME280;57706;56.326;43.882;2023-09-07T06:39:29;100609.44;;;13.55;68.02
70302;BME280;57706;56.326;43.882;2023-09-07T06:41:54;100606.97;;;13.92;67.35
70302;BME280;57706;56.326;43.882;2023-09-07T06:44:23;100607.38;;;14.64;65.38
70302;BME280;57706;56.326;43.882;2023-09-07T06:46:50;100609.28;;;15.00;63.25
70302;BME280;57706;56.326;43.882;2023-09-07T06:49:17;100605.75;;;14.63;63.63
70302;BME280;57706;56.326;43.882;2023-09-07T06:51:43;100600.00;;;14.14;65.40
70302;BME280;57706;56.326;43.882;2023-09-07T06:54:09;100610.59;;;13.75;66.81
70302;BME280;57706;56.326;43.882;2023-09-07T06:56:36;100612.47;;;13.43;67.89
70302;BME280;57706;56.326;43.882;2023-09-07T06:59:03;100618.66;;;13.27;68.84
70302;BME280;57706;56.326;43.882;2023-09-07T07:01:29;100628.56;;;13.25;69.57
70302;BME280;57706;56.326;43.882;2023-09-07T07:03:55;100619.75;;;13.41;69.66
70302;BME280;57706;56.326;43.882;2023-09-07T07:06:23;100622.78;;;13.61;69.03
70302;BME280;57706;56.326;43.882;2023-09-07T07:08:51;100619.97;;;14.31;67.05
70302;BME280;57706;56.326;43.882;2023-09-07T07:11:17;100625.19;;;15.22;64.29
70302;BME280;57706;56.326;43.882;2023-09-07T07:13:43;100622.94;;;15.40;63.08
70302;BME280;57706;56.326;43.882;2023-09-07T07:16:09;100625.78;;;15.61;62.56
70302;BME280;57706;56.326;43.882;2023-09-07T07:18:35;100622.41;;;15.30;62.84
70302;BME280;57706;56.326;43.882;2023-09-07T07:21:01;100628.09;;;14.90;63.57
70302;BME280;57706;56.326;43.882;2023-09-07T07:23:27;100623.63;;;14.76;63.65
70302;BME280;57706;56.326;43.882;2023-09-07T07:25:53;100624.91;;;14.80;63.33
70302;BME280;57706;56.326;43.882;2023-09-07T07:28:20;100617.44;;;14.83;63.58
70302;BME280;57706;56.326;43.882;2023-09-07T07:30:45;100624.81;;;14.28;63.77
70302;BME280;57706;56.326;43.882;2023-09-07T07:33:13;100635.16;;;13.99;65.12
70302;BME280;57706;56.326;43.882;2023-09-07T07:35:39;100626.16;;;14.39;64.79
70302;BME280;57706;56.326;43.882;2023-09-07T07:38:05;100629.44;;;15.01;62.47
70302;BME280;57706;56.326;43.882;2023-09-07T07:40:36;100627.47;;;15.25;61.40
70302;BME280;57706;56.326;43.882;2023-09-07T07:43:02;100639.81;;;15.18;60.21
70302;BME280;57706;56.326;43.882;2023-09-07T07:45:29;100630.91;;;14.89;59.66
70302;BME280;57706;56.326;43.882;2023-09-07T07:47:56;100633.81;;;14.64;60.57
70302;BME280;57706;56.326;43.882;2023-09-07T07:50:22;100639.22;;;14.55;59.24
70302;BME280;57706;56.326;43.882;2023-09-07T07:52:48;100630.81;;;14.97;58.73
70302;BME280;57706;56.326;43.882;2023-09-07T07:55:14;100644.03;;;14.97;57.31
70302;BME280;57706;56.326;43.882;2023-09-07T07:57:41;100639.84;;;15.03;56.56
70302;BME280;57706;56.326;43.882;2023-09-07T08:00:09;100649.06;;;15.07;56.71
70302;BME280;57706;56.326;43.882;2023-09-07T08:02:48;100657.25;;;15.49;56.46
70302;BME280;57706;56.326;43.882;2023-09-07T08:05:14;100660.53;;;15.51;55.20
70302;BME280;57706;56.326;43.882;2023-09-07T08:07:41;100653.50;;;15.43;55.51
70302;BME280;57706;56.326;43.882;2023-09-07T08:10:07;100654.19;;;15.30;54.79
70302;BME280;57706;56.326;43.882;2023-09-07T08:12:33;100661.88;;;15.25;54.47
70302;BME280;57706;56.326;43.882;2023-09-07T08:15:00;100660.88;;;15.48;54.46
70302;BME280;57706;56.326;43.882;2023-09-07T08:17:26;100652.41;;;15.96;53.58
70302;BME280;57706;56.326;43.882;2023-09-07T08:19:52;100652.72;;;16.43;52.25
70302;BME280;57706;56.326;43.882;2023-09-07T08:22:23;100649.66;;;17.51;49.12
70302;BME280;57706;56.326;43.882;2023-09-07T08:24:49;100647.97;;;18.57;46.68
70302;BME280;57706;56.326;43.882;2023-09-07T08:27:17;100645.69;;;25.81;32.57
70302;BME280;57706;56.326;43.882;2023-09-07T08:29:47;100636.88;;;27.65;28.59
70302;BME280;57706;56.326;43.882;2023-09-07T08:32:17;100628.94;;;28.26;25.94
70302;BME280;57706;56.326;43.882;2023-09-07T08:34:45;100626.84;;;31.22;23.94
70302;BME280;57706;56.326;43.882;2023-09-07T08:37:11;100618.50;;;27.72;26.41
70302;BME280;57706;56.326;43.882;2023-09-07T08:39:37;100641.81;;;24.34;32.49
70302;BME280;57706;56.326;43.882;2023-09-07T08:42:05;100638.63;;;22.71;34.49
70302;BME280;57706;56.326;43.882;2023-09-07T08:44:33;100637.63;;;21.34;36.07
70302;BME280;57706;56.326;43.882;2023-09-07T08:47:01;100650.94;;;20.17;38.58
70302;BME280;57706;56.326;43.882;2023-09-07T08:49:29;100650.31;;;18.86;40.47
70302;BME280;57706;56.326;43.882;2023-09-07T08:51:59;100648.34;;;18.75;41.50
70302;BME280;57706;56.326;43.882;2023-09-07T08:54:26;100654.13;;;19.17;41.00
70302;BME280;57706;56.326;43.882;2023-09-07T08:56:52;100658.69;;;19.03;40.53
70302;BME280;57706;56.326;43.882;2023-09-07T08:59:19;100652.16;;;18.92;41.68
70302;BME280;57706;56.326;43.882;2023-09-07T09:01:45;100660.56;;;20.18;39.75
70302;BME280;57706;56.326;43.882;2023-09-07T09:04:12;100652.50;;;25.89;30.94
70302;BME280;57706;56.326;43.882;2023-09-07T09:06:38;100647.84;;;28.81;24.55
70302;BME280;57706;56.326;43.882;2023-09-07T09:09:04;100646.63;;;28.58;25.41
70302;BME280;57706;56.326;43.882;2023-09-07T09:11:33;100643.03;;;28.68;25.20
70302;BME280;57706;56.326;43.882;2023-09-07T09:13:58;100635.38;;;31.96;21.90
70302;BME280;57706;56.326;43.882;2023-09-07T09:16:25;100641.28;;;28.48;24.37
70302;BME280;57706;56.326;43.882;2023-09-07T09:18:55;100638.41;;;25.76;28.32
70302;BME280;57706;56.326;43.882;2023-09-07T09:21:23;100653.16;;;23.04;31.66
70302;BME280;57706;56.326;43.882;2023-09-07T09:23:50;100667.81;;;21.23;34.33
70302;BME280;57706;56.326;43.882;2023-09-07T09:26:16;100672.69;;;20.39;36.00
70302;BME280;57706;56.326;43.882;2023-09-07T09:28:43;100676.50;;;19.74;37.47
70302;BME280;57706;56.326;43.882;2023-09-07T09:31:12;100670.19;;;19.68;37.99
70302;BME280;57706;56.326;43.882;2023-09-07T09:33:39;100684.06;;;20.09;37.88
70302;BME280;57706;56.326;43.882;2023-09-07T09:36:06;100682.88;;;24.12;31.30
70302;BME280;57706;56.326;43.882;2023-09-07T09:38:33;100673.13;;;22.55;32.94
70302;BME280;57706;56.326;43.882;2023-09-07T09:41:00;100671.81;;;21.75;33.82
70302;BME280;57706;56.326;43.882;2023-09-07T09:43:26;100674.59;;;21.37;35.07
70302;BME280;57706;56.326;43.882;2023-09-07T09:45:53;100682.19;;;21.83;34.32
70302;BME280;57706;56.326;43.882;2023-09-07T09:48:19;100681.91;;;22.68;33.22
70302;BME280;57706;56.326;43.882;2023-09-07T09:50:47;100690.97;;;22.91;32.49
70302;BME280;57706;56.326;43.882;2023-09-07T09:53:15;100689.63;;;21.93;34.13
70302;BME280;57706;56.326;43.882;2023-09-07T09:55:45;100700.19;;;20.84;35.83
70302;BME280;57706;56.326;43.882;2023-09-07T09:58:13;100695.94;;;18.24;41.01
70302;BME280;57706;56.326;43.882;2023-09-07T10:00:42;100700.44;;;17.14;43.33
70302;BME280;57706;56.326;43.882;2023-09-07T10:03:10;100705.91;;;16.70;44.06
70302;BME280;57706;56.326;43.882;2023-09-07T10:05:38;100715.16;;;16.17;46.58
70302;BME280;57706;56.326;43.882;2023-09-07T10:08:12;100724.22;;;15.86;49.49
70302;BME280;57706;56.326;43.882;2023-09-07T10:10:41;100719.59;;;16.10;49.50
70302;BME280;57706;56.326;43.882;2023-09-07T10:13:08;100719.78;;;16.65;48.38
70302;BME280;57706;56.326;43.882;2023-09-07T10:15:34;100723.72;;;17.87;46.64
70302;BME280;57706;56.326;43.882;2023-09-07T10:20:50;100716.97;;;24.51;32.82
70302;BME280;57706;56.326;43.882;2023-09-07T10:23:18;100720.16;;;27.04;28.61
70302;BME280;57706;56.326;43.882;2023-09-07T10:25:48;100720.66;;;25.62;28.97
70302;BME280;57706;56.326;43.882;2023-09-07T10:28:25;100717.28;;;23.23;32.48
70302;BME280;57706;56.326;43.882;2023-09-07T10:30:58;100723.13;;;21.95;35.06
70302;BME280;57706;56.326;43.882;2023-09-07T10:33:25;100715.38;;;21.63;34.15
70302;BME280;57706;56.326;43.882;2023-09-07T10:35:51;100717.38;;;22.99;32.22
70302;BME280;57706;56.326;43.882;2023-09-07T10:38:17;100710.66;;;29.58;23.36
70302;BME280;57706;56.326;43.882;2023-09-07T10:40:44;100714.34;;;27.59;25.96
70302;BME280;57706;56.326;43.882;2023-09-07T10:43:13;100715.59;;;25.70;27.37
70302;BME280;57706;56.326;43.882;2023-09-07T10:45:39;100712.59;;;25.62;27.61
70302;BME280;57706;56.326;43.882;2023-09-07T10:48:05;100706.72;;;30.04;23.22
70302;BME280;57706;56.326;43.882;2023-09-07T10:50:45;100715.53;;;31.08;21.48
70302;BME280;57706;56.326;43.882;2023-09-07T10:53:14;100712.84;;;29.56;22.16
70302;BME280;57706;56.326;43.882;2023-09-07T10:55:41;100708.59;;;28.39;24.15
70302;BME280;57706;56.326;43.882;2023-09-07T10:58:10;100716.47;;;28.96;23.61
70302;BME280;57706;56.326;43.882;2023-09-07T11:00:36;100717.78;;;34.03;18.15
70302;BME280;57706;56.326;43.882;2023-09-07T11:03:07;100712.22;;;35.37;16.49
70302;BME280;57706;56.326;43.882;2023-09-07T11:05:36;100711.00;;;32.87;18.47
70302;BME280;57706;56.326;43.882;2023-09-07T11:08:05;100708.91;;;33.66;17.90
70302;BME280;57706;56.326;43.882;2023-09-07T11:10:36;100713.66;;;32.78;18.65
70302;BME280;57706;56.326;43.882;2023-09-07T11:13:03;100724.78;;;29.55;21.98
70302;BME280;57706;56.326;43.882;2023-09-07T11:15:30;100716.75;;;33.99;18.36
70302;BME280;57706;56.326;43.882;2023-09-07T11:17:56;100717.38;;;33.87;17.98
70302;BME280;57706;56.326;43.882;2023-09-07T11:20:25;100705.28;;;37.42;14.59
70302;BME280;57706;56.326;43.882;2023-09-07T11:22:51;100701.72;;;38.25;14.46
70302;BME280;57706;56.326;43.882;2023-09-07T11:25:17;100699.78;;;39.36;13.47
70302;BME280;57706;56.326;43.882;2023-09-07T11:27:44;100699.47;;;40.02;12.56
70302;BME280;57706;56.326;43.882;2023-09-07T11:30:11;100699.47;;;40.38;12.64
70302;BME280;57706;56.326;43.882;2023-09-07T11:32:37;100694.69;;;41.56;11.84
70302;BME280;57706;56.326;43.882;2023-09-07T11:35:04;100684.28;;;41.23;12.18
70302;BME280;57706;56.326;43.882;2023-09-07T11:37:33;100681.16;;;37.01;14.53
70302;BME280;57706;56.326;43.882;2023-09-07T11:40:01;100688.41;;;31.93;19.16
70302;BME280;57706;56.326;43.882;2023-09-07T11:42:30;100680.25;;;28.26;23.00
70302;BME280;57706;56.326;43.882;2023-09-07T11:44:56;100710.13;;;25.33;25.98
70302;BME280;57706;56.326;43.882;2023-09-07T11:47:22;100698.59;;;23.28;28.70
70302;BME280;57706;56.326;43.882;2023-09-07T11:49:48;100703.59;;;21.95;31.02
70302;BME280;57706;56.326;43.882;2023-09-07T11:52:14;100700.56;;;24.92;28.03
70302;BME280;57706;56.326;43.882;2023-09-07T11:54:40;100692.91;;;28.41;23.40
70302;BME280;57706;56.326;43.882;2023-09-07T11:57:06;100688.72;;;29.89;21.66
70302;BME280;57706;56.326;43.882;2023-09-07T11:59:32;100698.63;;;26.51;25.24
70302;BME280;57706;56.326;43.882;2023-09-07T12:01:59;100701.19;;;23.52;29.11
70302;BME280;57706;56.326;43.882;2023-09-07T12:04:26;100701.81;;;21.46;32.62
70302;BME280;57706;56.326;43.882;2023-09-07T12:06:52;100701.09;;;20.52;34.16
70302;BME280;57706;56.326;43.882;2023-09-07T12:09:17;100691.28;;;24.38;29.31
70302;BME280;57706;56.326;43.882;2023-09-07T12:11:43;100691.03;;;30.01;22.20
70302;BME280;57706;56.326;43.882;2023-09-07T12:14:09;100689.00;;;33.57;19.13
70302;BME280;57706;56.326;43.882;2023-09-07T12:16:35;100678.72;;;36.06;16.45
70302;BME280;57706;56.326;43.882;2023-09-07T12:19:01;100685.78;;;36.16;16.33
70302;BME280;57706;56.326;43.882;2023-09-07T12:21:27;100674.75;;;36.97;14.98
70302;BME280;57706;56.326;43.882;2023-09-07T12:23:53;100680.00;;;37.95;14.33
70302;BME280;57706;56.326;43.882;2023-09-07T12:26:19;100672.25;;;38.09;14.44
70302;BME280;57706;56.326;43.882;2023-09-07T12:28:47;100679.91;;;39.10;13.41
70302;BME280;57706;56.326;43.882;2023-09-07T12:31:14;100666.13;;;39.55;12.26
70302;BME280;57706;56.326;43.882;2023-09-07T12:33:40;100671.00;;;39.01;11.72
70302;BME280;57706;56.326;43.882;2023-09-07T12:36:06;100673.81;;;36.93;13.33
70302;BME280;57706;56.326;43.882;2023-09-07T12:38:36;100665.94;;;33.95;15.60
70302;BME280;57706;56.326;43.882;2023-09-07T12:41:02;100667.63;;;29.22;19.74
70302;BME280;57706;56.326;43.882;2023-09-07T12:43:28;100678.66;;;26.42;22.76